Have a Safe July 4th! 

Flight Track Log - Related Links

Times and Time Zones

All times are in EDT time to prevent confusion due to time zone crossing. See the SKW6425 flight status page for this flight to view local times or setup timezone preferences in your user account.

Time Position Orientation Groundspeed Altitude Reporting Facility
EDT Latitude Longitude Course Direction KTS MPH feet Rate Location/Type
Wed 12:30:39 PM 50.3833 -104.7667 242° Southwest 210 242 4,700  Level Winnipeg Center
Wed 12:31:39 PM 50.3333 -104.6833 133° Southeast 280 322 6,600 2,300 Climbing Winnipeg Center
Wed 12:32:00 PM 50.2405 -104.1457 90° East  Level Estimated
Wed 12:32:39 PM 50.3000 -104.5667 114° Southeast 290 334 9,300  Level Winnipeg Center
Wed 12:33:00 PM 50.3154 -103.9838 54° Northeast  Level FlightAware Approximate
Wed 12:33:39 PM 50.2500 -104.4667 128° Southeast 310 357 11,100  Level Winnipeg Center
Wed 12:34:00 PM 50.2500 -103.8121 93° East  Level Estimated
Wed 12:34:39 PM 50.2000 -104.3500 124° Southeast 330 380 12,900  Level Winnipeg Center
Wed 12:35:39 PM 50.1333 -104.2000 125° Southeast 350 403 14,600 1,600 Climbing Winnipeg Center
Wed 12:36:39 PM 50.1000 -104.0667 111° Southeast 360 414 16,100 1,500 Climbing Winnipeg Center
Wed 12:37:39 PM 50.0333 -103.9333 128° Southeast 370 426 17,600 1,250 Climbing Winnipeg Center
Wed 12:38:39 PM 49.9833 -103.7833 117° Southeast 380 437 18,600 1,150 Climbing Winnipeg Center
Wed 12:39:39 PM 49.9167 -103.6500 128° Southeast 390 449 19,900 1,200 Climbing Winnipeg Center
Wed 12:40:39 PM 49.8667 -103.5167 120° Southeast 400 460 21,000 1,150 Climbing Winnipeg Center
Wed 12:41:39 PM 49.8000 -103.3500 122° Southeast 400 460 22,200 1,100 Climbing Winnipeg Center
Wed 12:42:39 PM 49.7500 -103.2167 120° Southeast 410 472 23,200 1,000 Climbing Winnipeg Center
Wed 12:43:39 PM 49.6833 -103.0667 124° Southeast 410 472 24,200 850 Climbing Winnipeg Center
Wed 12:44:39 PM 49.6000 -102.9000 128° Southeast 420 483 24,900 600 Climbing Winnipeg Center
Wed 12:45:39 PM 49.5500 -102.7500 117° Southeast 430 495 25,400 500 Climbing Winnipeg Center
Wed 12:46:39 PM 49.4667 -102.5833 128° Southeast 440 506 25,900 500 Climbing Winnipeg Center
Wed 12:47:39 PM 49.4167 -102.4167 115° Southeast 450 518 26,400 500 Climbing Winnipeg Center
Wed 12:48:39 PM 49.3333 -102.2500 127° Southeast 460 529 26,900 500 Climbing Winnipeg Center
Wed 12:49:39 PM 49.2667 -102.1000 124° Southeast 460 529 27,400 500 Climbing Winnipeg Center
Wed 12:50:39 PM 49.2000 -101.9333 121° Southeast 470 541 27,900 500 Climbing Winnipeg Center
Wed 12:51:39 PM 49.1333 -101.7667 121° Southeast 470 541 28,400 500 Climbing Winnipeg Center
Wed 12:52:39 PM 49.0500 -101.6167 130° Southeast 470 541 28,900 550 Climbing Winnipeg Center
Wed 12:53:39 PM 48.9667 -101.4500 127° Southeast 470 541 29,500 600 Climbing Winnipeg Center
Wed 12:54:39 PM 48.9000 -101.2667 119° Southeast 480 552 30,100 531 Climbing Winnipeg Center
Wed 12:55:32 PM 48.8556 -101.1364 117° Southeast 474 545 30,500 522 Climbing Minneapolis Center
Wed 12:56:34 PM 48.7817 -100.9747 125° Southeast 471 542 31,100 532 Climbing Minneapolis Center
Wed 12:57:36 PM 48.7075 -100.8122 125° Southeast 470 541 31,600 532 Climbing Minneapolis Center
Wed 12:58:38 PM 48.6181 -100.6178 125° Southeast 470 541 32,200 585 Climbing Minneapolis Center
Wed 12:59:39 PM 48.5167 -100.4500 132° Southeast 470 541 32,800 397 Climbing Winnipeg Center
Wed 01:00:39 PM 48.4500 -100.3000 124° Southeast 470 541 33,000 100 Climbing Winnipeg Center
Wed 01:01:39 PM 48.3667 -100.1333 127° Southeast 480 552 33,000  Level Winnipeg Center
Wed 01:02:39 PM 48.2833 -99.9500 124° Southeast 490 564 33,000  Level Winnipeg Center
Wed 01:03:39 PM 48.2000 -99.8000 130° Southeast 490 564 33,000  Level Winnipeg Center
Wed 01:04:39 PM 48.1333 -99.6167 119° Southeast 500 575 33,000  Level Winnipeg Center
Wed 01:05:39 PM 48.0500 -99.4333 124° Southeast 500 575 33,000  Level Winnipeg Center
Wed 01:06:39 PM 47.9667 -99.2833 130° Southeast 500 575 33,000  Level Winnipeg Center
Wed 01:07:39 PM 47.8833 -99.1167 127° Southeast 490 564 33,000  Level Winnipeg Center
Wed 01:08:39 PM 47.8000 -98.9500 127° Southeast 500 575 33,000  Level Winnipeg Center
Wed 01:09:39 PM 47.7333 -98.7833 121° Southeast 500 575 33,000  Level Winnipeg Center
Wed 01:10:39 PM 47.6500 -98.6000 124° Southeast 500 575 33,000  Level Winnipeg Center
Wed 01:11:39 PM 47.5667 -98.4500 129° Southeast 500 575 33,000  Level Winnipeg Center
Wed 01:12:39 PM 47.4667 -98.2833 132° Southeast 500 575 33,000  Level Winnipeg Center
Wed 01:13:39 PM 47.3833 -98.1333 129° Southeast 500 575 33,000  Level Winnipeg Center
Wed 01:14:09 PM 47.3817 -98.0631 92° East 500 575 33,000  Level Minneapolis Center
Wed 01:15:11 PM 47.2836 -97.8719 127° Southeast 497 572 33,000  Level Minneapolis Center
Wed 01:16:13 PM 47.2022 -97.7119 127° Southeast 496 571 33,000  Level Minneapolis Center
Wed 01:17:15 PM 47.1192 -97.5514 127° Southeast 496 571 33,000  Level Minneapolis Center
Wed 01:18:17 PM 47.0358 -97.3917 127° Southeast 496 571 33,000  Level Minneapolis Center
Wed 01:19:19 PM 46.9525 -97.2331 128° Southeast 495 570 33,000  Level Minneapolis Center
Wed 01:20:33 PM 46.8528 -97.0403 127° Southeast 497 572 33,000  Level Minneapolis Center
Wed 01:21:36 PM 46.7508 -96.8489 128° Southeast 499 574 33,000  Level Minneapolis Center
Wed 01:22:38 PM 46.6583 -96.7025 133° Southeast 494 568 33,000  Level Minneapolis Center
Wed 01:23:40 PM 46.5658 -96.5544 132° Southeast 495 570 33,000  Level Minneapolis Center
Wed 01:24:41 PM 46.4903 -96.4364 133° Southeast 499 574 33,000  Level Minneapolis Center
Wed 01:25:44 PM 46.3794 -96.2603 132° Southeast 495 570 33,000  Level Minneapolis Center
Wed 01:26:46 PM 46.2672 -96.0856 133° Southeast 494 568 33,000  Level Minneapolis Center
Wed 01:27:48 PM 46.1658 -95.9281 133° Southeast 495 570 33,000  Level Minneapolis Center
Wed 01:28:50 PM 46.0725 -95.7842 133° Southeast 494 568 33,000  Level Minneapolis Center
Wed 01:29:52 PM 45.9789 -95.6425 134° Southeast 490 564 33,000  Level Minneapolis Center
Wed 01:30:54 PM 45.8619 -95.5722 157° South 458 527 33,000  Level Minneapolis Center
Wed 01:31:56 PM 45.7425 -95.5339 167° South 441 507 33,000  Level Minneapolis Center
Wed 01:32:58 PM 45.6269 -95.5006 169° South 427 491 33,000  Level Minneapolis Center
Wed 01:34:00 PM 45.5150 -95.4681 169° South 413 475 33,000  Level Minneapolis Center
Wed 01:35:03 PM 45.3814 -95.4292 168° South 409 471 33,000  Level Minneapolis Center
Wed 01:36:05 PM 45.2694 -95.3967 168° South 410 472 33,000  Level Minneapolis Center
Wed 01:37:07 PM 45.1581 -95.3661 169° South 408 470 33,000  Level Minneapolis Center
Wed 01:38:09 PM 45.0467 -95.3333 168° South 409 471 33,000  Level Minneapolis Center
Wed 01:39:11 PM 44.9353 -95.3017 169° South 407 468 33,000  Level Minneapolis Center
Wed 01:40:13 PM 44.8003 -95.2628 168° South 412 474 33,000  Level Minneapolis Center
Wed 01:41:15 PM 44.6978 -95.1794 150° Southeast 427 491 33,000  Level Minneapolis Center
Wed 01:42:29 PM 44.6264 -95.0292 124° Southeast 457 526 33,000  Level Minneapolis Center
Wed 01:43:32 PM 44.5483 -94.8344 119° Southeast 473 544 33,000  Level Minneapolis Center
Wed 01:44:34 PM 44.4819 -94.6694 119° Southeast 482 555 33,000  Level Minneapolis Center
Wed 01:45:36 PM 44.4139 -94.5044 120° Southeast 487 560 33,000  Level Minneapolis Center
Wed 01:46:38 PM 44.3458 -94.3378 120° Southeast 493 567 33,000  Level Minneapolis Center
Wed 01:47:40 PM 44.2419 -94.1783 132° Southeast 468 539 33,000  Level Minneapolis Center
Wed 01:48:54 PM 44.1283 -94.1072 156° South 448 516 33,000  Level Minneapolis Center
Wed 01:49:56 PM 43.9914 -94.0261 157° South 447 514 33,000  Level Minneapolis Center
Wed 01:50:59 PM 43.8742 -93.9606 158° South 450 518 33,000  Level Minneapolis Center
Wed 01:52:01 PM 43.7581 -93.8964 158° South 451 519 33,000  Level Minneapolis Center
Wed 01:53:03 PM 43.6322 -93.7869 148° Southeast 469 540 33,000  Level Minneapolis Center
Wed 01:54:05 PM 43.5722 -93.6297 118° Southeast 471 542 33,000  Level Minneapolis Center
Wed 01:55:07 PM 43.5394 -93.4561 105° East 472 543 33,000  Level Minneapolis Center
Wed 01:56:09 PM 43.5064 -93.2828 105° East 473 544 33,000  Level Minneapolis Center
Wed 01:57:11 PM 43.4753 -93.1042 103° East 482 555 33,000  Level Minneapolis Center
Wed 01:58:13 PM 43.4342 -92.8892 105° East 489 563 33,000  Level Minneapolis Center
Wed 01:59:15 PM 43.3981 -92.7083 105° East 494 568 33,000 -265 Level Minneapolis Center
Wed 02:00:29 PM 43.3617 -92.5264 105° East 499 574 32,400 -788 Descending Minneapolis Center
Wed 02:01:32 PM 43.3172 -92.3050 105° East 498 573 31,200 -672 Descending Minneapolis Center
Wed 02:02:34 PM 43.2842 -92.1372 105° East 460 529 31,000 -97 Descending Minneapolis Center
Wed 02:03:36 PM 43.2422 -91.9381 106° East 455 524 31,000  Level Minneapolis Center
Wed 02:05:40 PM 43.1683 -91.5997 107° East 463 533 31,000  Level Minneapolis Center
Wed 02:06:42 PM 43.1097 -91.4372 116° Southeast 473 544 31,000 -188 Level Minneapolis Center
Wed 02:07:48 PM 43.0394 -91.2383 116° Southeast 486 559 30,600 -891 Descending Chicago Center
Wed 02:08:50 PM 42.9800 -91.0689 116° Southeast 493 567 29,100 -871 Descending Chicago Center
Wed 02:09:52 PM 42.9233 -90.9061 115° Southeast 478 550 28,800 -629 Descending Chicago Center
Wed 02:10:54 PM 42.8642 -90.7378 116° Southeast 491 565 27,800 -871 Descending Chicago Center
Wed 02:11:56 PM 42.8031 -90.5664 116° Southeast 505 581 27,000 -774 Descending Chicago Center
Wed 02:12:58 PM 42.7450 -90.4000 115° Southeast 492 566 26,200 -823 Descending Chicago Center
Wed 02:14:00 PM 42.6742 -90.2081 117° Southeast 478 550 25,300 -726 Descending Chicago Center
Wed 02:15:02 PM 42.6156 -90.0461 116° Southeast 481 554 24,700 -774 Descending Chicago Center
Wed 02:16:04 PM 42.5581 -89.8889 116° Southeast 478 550 23,700 -823 Descending Chicago Center
Wed 02:17:06 PM 42.5086 -89.6950 109° East 464 534 23,000 -339 Descending Chicago Center
Wed 02:18:08 PM 42.4906 -89.5222 98° East 464 534 23,000 -387 Level Chicago Center
Wed 02:19:10 PM 42.4708 -89.3492 99° East 463 533 22,200 -871 Descending Chicago Center
Wed 02:20:12 PM 42.4517 -89.1794 99° East 457 526 21,200 -1,887 Descending Chicago Center
Wed 02:21:14 PM 42.4328 -89.0153 99° East 443 510 18,300 -2,952 Descending Chicago Center
Wed 02:22:16 PM 42.4128 -88.8344 98° East 419 482 15,100 -2,806 Descending Chicago Center
Wed 02:23:18 PM 42.3956 -88.6825 99° East 409 471 12,500 -2,304 Descending Chicago Center
Wed 02:24:21 PM 42.3783 -88.5378 99° East 393 452 10,300 -1,200 Descending Chicago Center
Wed 02:25:23 PM 42.3442 -88.4042 109° East 380 437 10,000 -145 Descending Chicago Center
Wed 02:26:25 PM 42.2817 -88.2956 128° Southeast 375 432 10,000  Level Chicago Center
Wed 02:27:27 PM 42.2033 -88.1619 128° Southeast 377 434 10,000 -145 Level Chicago Center
Wed 02:28:29 PM 42.1339 -88.0781 138° Southeast 340 391 9,700 -1,113 Descending Chicago Center
Wed 02:29:31 PM 42.0914 -87.9900 123° Southeast 291 335 7,700 -1,306 Descending Chicago Center
Wed 02:30:33 PM 42.0917 -87.8767 90° East 297 342 7,000 -339 Descending Chicago Center
Wed 02:31:35 PM 42.0917 -87.7850 90° East 257 296 7,000 -677 Level Chicago Center
Wed 02:32:37 PM 42.0908 -87.7050 91° East 222 255 5,600 -1,306 Descending Chicago Center
Wed 02:33:39 PM 42.0489 -87.6478 135° Southeast 214 246 4,300 -1,056 Descending Chicago Center
Wed 02:34:42 PM 42.0094 -87.6903 219° Southwest 193 222 3,400 -857 Descending Chicago Center

Login

Don't have an account? Register now (free) for customized features, flight alerts, and more!